createdAt,value
2019-02-28T00:00:00.862Z,5.18
2019-02-28T00:02:34.348Z,5.22
2019-02-28T00:05:06.830Z,5.18
2019-02-28T00:07:38.794Z,5.04
2019-02-28T00:10:10.912Z,5.00
2019-02-28T00:12:45.248Z,5.04
2019-02-28T00:15:16.271Z,5.04
2019-02-28T00:17:48.062Z,4.95
2019-02-28T00:20:19.942Z,4.91
2019-02-28T00:22:51.816Z,4.76
2019-02-28T00:25:23.709Z,4.83
2019-02-28T00:27:55.625Z,5.04
2019-02-28T00:30:27.512Z,4.97
2019-02-28T00:32:59.959Z,4.93
2019-02-28T00:35:31.934Z,4.97
2019-02-28T00:38:03.767Z,5.02
2019-02-28T00:40:38.480Z,5.08
2019-02-28T00:43:09.112Z,5.04
2019-02-28T00:45:40.931Z,5.18
2019-02-28T00:48:12.795Z,5.19
2019-02-28T00:50:44.656Z,5.17
2019-02-28T00:53:16.598Z,5.19
2019-02-28T00:55:48.411Z,5.19
2019-02-28T00:58:21.286Z,5.14
2019-02-28T01:00:53.160Z,5.13
2019-02-28T01:03:27.444Z,5.06
2019-02-28T01:05:58.494Z,5.07
2019-02-28T01:08:30.304Z,5.07
2019-02-28T01:11:02.532Z,5.12
2019-02-28T01:13:46.493Z,5.18
2019-02-28T01:16:19.304Z,5.20
2019-02-28T01:18:52.000Z,5.23
2019-02-28T01:21:24.586Z,5.23
2019-02-28T01:23:56.716Z,5.24
2019-02-28T01:26:30.510Z,5.35
2019-02-28T01:29:02.771Z,5.43
2019-02-28T01:31:34.865Z,5.26
2019-02-28T01:34:06.911Z,5.34
2019-02-28T01:36:38.674Z,5.32
2019-02-28T01:39:13.009Z,5.31
2019-02-28T01:41:49.442Z,5.07
2019-02-28T01:44:21.287Z,5.22
2019-02-28T01:46:56.451Z,4.99
2019-02-28T01:49:30.559Z,5.08
2019-02-28T01:52:10.057Z,5.05
2019-02-28T01:54:42.941Z,4.85
2019-02-28T01:57:16.900Z,4.81
2019-02-28T01:59:52.876Z,4.90
2019-02-28T02:02:24.201Z,4.98
2019-02-28T02:04:57.258Z,4.82
2019-02-28T02:07:30.547Z,4.94
2019-02-28T02:10:02.872Z,5.00
2019-02-28T02:12:38.607Z,5.11
2019-02-28T02:15:11.259Z,5.08
2019-02-28T02:17:50.205Z,5.07
2019-02-28T02:20:23.452Z,5.21
2019-02-28T02:22:55.683Z,5.12
2019-02-28T02:25:27.600Z,5.21
2019-02-28T02:27:59.435Z,5.33
2019-02-28T02:30:31.281Z,5.33
2019-02-28T02:33:03.061Z,5.38
2019-02-28T02:35:34.867Z,5.38
2019-02-28T02:38:06.732Z,5.20
2019-02-28T02:40:38.614Z,5.34
2019-02-28T02:43:10.471Z,5.41
2019-02-28T02:45:43.829Z,5.36
2019-02-28T02:48:15.869Z,5.25
2019-02-28T02:50:47.721Z,5.16
2019-02-28T02:53:19.543Z,5.21
2019-02-28T02:55:51.355Z,5.25
2019-02-28T02:58:26.725Z,5.25
2019-02-28T03:00:56.671Z,5.21
2019-02-28T03:03:28.548Z,5.31
2019-02-28T03:06:00.444Z,5.33
2019-02-28T03:08:36.237Z,5.40
2019-02-28T03:11:05.790Z,5.37
2019-02-28T03:13:42.137Z,5.38
2019-02-28T03:16:13.831Z,5.54
2019-02-28T03:18:45.968Z,5.43
2019-02-28T03:21:17.733Z,5.35
2019-02-28T03:23:49.554Z,5.48
2019-02-28T03:26:21.386Z,5.53
2019-02-28T03:28:53.223Z,5.45
2019-02-28T03:31:25.067Z,5.51
2019-02-28T03:34:10.372Z,5.50
2019-02-28T03:36:30.414Z,5.55
2019-02-28T03:39:02.287Z,5.54
2019-02-28T03:41:35.685Z,5.51
2019-02-28T03:44:07.538Z,5.54
2019-02-28T03:46:39.442Z,5.49
2019-02-28T03:49:12.515Z,5.46
2019-02-28T03:51:44.476Z,5.36
2019-02-28T03:54:16.295Z,5.35
2019-02-28T03:56:52.702Z,5.50
2019-02-28T03:59:21.911Z,5.49
2019-02-28T04:01:53.822Z,5.52
2019-02-28T04:04:25.840Z,5.56
2019-02-28T04:06:57.747Z,5.55
2019-02-28T04:09:29.537Z,5.57
2019-02-28T04:12:07.190Z,5.50
2019-02-28T04:14:34.965Z,5.41
2019-02-28T04:17:06.839Z,5.42
2019-02-28T04:19:38.651Z,5.40
2019-02-28T04:22:10.457Z,5.31
2019-02-28T04:24:46.324Z,5.29
2019-02-28T04:27:15.822Z,5.34
2019-02-28T04:29:47.647Z,5.37
2019-02-28T04:32:26.371Z,5.36
2019-02-28T04:34:53.073Z,5.23
2019-02-28T04:37:24.930Z,5.33
2019-02-28T04:39:57.723Z,5.31
2019-02-28T04:42:29.509Z,5.33
2019-02-28T04:45:01.406Z,5.38
2019-02-28T04:47:33.522Z,5.27
2019-02-28T04:50:05.923Z,5.21
2019-02-28T04:52:37.758Z,5.21
2019-02-28T04:55:10.030Z,5.16
2019-02-28T04:57:41.837Z,5.14
2019-02-28T05:00:15.589Z,5.19
2019-02-28T05:02:47.481Z,5.20
2019-02-28T05:05:19.470Z,5.17
2019-02-28T05:07:51.398Z,5.20
2019-02-28T05:10:23.221Z,5.12
2019-02-28T05:12:55.058Z,5.11
2019-02-28T05:15:27.196Z,5.05
2019-02-28T05:17:59.221Z,5.03
2019-02-28T05:20:32.861Z,5.01
2019-02-28T05:23:04.958Z,4.97
2019-02-28T05:25:38.910Z,4.92
2019-02-28T05:28:11.053Z,4.91
2019-02-28T05:30:43.124Z,4.98
2019-02-28T05:33:15.365Z,4.98
2019-02-28T05:35:47.317Z,4.97
2019-02-28T05:38:21.104Z,4.96
2019-02-28T05:40:55.516Z,5.03
2019-02-28T05:43:32.132Z,4.93
2019-02-28T05:46:06.121Z,4.97
2019-02-28T05:48:41.510Z,5.06
2019-02-28T05:52:19.929Z,5.05
2019-02-28T05:54:47.245Z,5.02
2019-02-28T05:57:08.180Z,4.97
2019-02-28T06:00:01.900Z,4.89
2019-02-28T06:02:36.193Z,4.78
2019-02-28T06:05:12.027Z,4.81
2019-02-28T06:07:42.967Z,4.87
2019-02-28T06:10:15.290Z,4.79
2019-02-28T06:13:04.361Z,4.74
2019-02-28T06:15:38.340Z,4.73
2019-02-28T06:18:12.697Z,4.82
2019-02-28T06:20:44.383Z,4.88
2019-02-28T06:23:16.403Z,5.05
2019-02-28T06:25:48.274Z,5.09
2019-02-28T06:28:20.215Z,5.11
2019-02-28T06:30:51.989Z,5.18
2019-02-28T06:33:23.845Z,5.29
2019-02-28T06:35:55.721Z,5.43
2019-02-28T06:38:27.606Z,5.48
2019-02-28T06:40:59.444Z,5.57
2019-02-28T06:43:33.651Z,5.60
2019-02-28T06:46:08.498Z,5.76
2019-02-28T06:48:39.275Z,5.91
2019-02-28T06:51:11.241Z,5.94
2019-02-28T06:53:43.105Z,5.98
2019-02-28T06:56:16.361Z,6.12
2019-02-28T06:58:48.925Z,6.21
2019-02-28T07:01:22.859Z,6.36
2019-02-28T07:03:54.929Z,6.52
2019-02-28T07:06:26.879Z,6.58
2019-02-28T07:09:02.161Z,6.75
2019-02-28T07:11:34.141Z,6.79
2019-02-28T07:14:05.982Z,6.82
2019-02-28T07:16:38.113Z,6.89
2019-02-28T07:19:09.911Z,6.96
2019-02-28T07:21:43.923Z,7.13
2019-02-28T07:24:16.069Z,7.26
2019-02-28T07:26:48.323Z,7.27
2019-02-28T07:29:20.457Z,7.36
2019-02-28T07:31:52.341Z,7.55
2019-02-28T07:34:24.288Z,7.68
2019-02-28T07:37:05.070Z,7.68
2019-02-28T07:39:40.477Z,7.67
2019-02-28T07:42:12.080Z,7.86
2019-02-28T07:44:44.078Z,7.93
2019-02-28T07:47:17.711Z,7.99
2019-02-28T07:49:50.301Z,8.12
2019-02-28T07:52:22.397Z,8.28
2019-02-28T07:54:55.884Z,8.25
2019-02-28T07:57:29.951Z,8.30
2019-02-28T08:00:01.776Z,8.36
2019-02-28T08:02:35.718Z,8.50
2019-02-28T08:05:07.988Z,8.57
2019-02-28T08:07:39.824Z,8.80
2019-02-28T08:10:15.957Z,8.79
2019-02-28T08:12:48.344Z,8.75
2019-02-28T08:15:22.854Z,8.89
2019-02-28T08:17:54.868Z,8.96
2019-02-28T08:20:26.780Z,8.92
2019-02-28T08:22:58.628Z,8.94
2019-02-28T08:25:30.538Z,9.09
2019-02-28T08:28:02.542Z,9.14
2019-02-28T08:30:34.416Z,9.25
2019-02-28T08:33:06.445Z,9.53
2019-02-28T08:35:38.244Z,9.67
2019-02-28T08:38:10.116Z,9.67
2019-02-28T08:40:41.941Z,9.82
2019-02-28T08:43:14.133Z,9.94
2019-02-28T08:45:46.059Z,9.94
2019-02-28T08:48:17.879Z,10.09
2019-02-28T08:50:52.620Z,10.15
2019-02-28T08:53:23.353Z,10.15
2019-02-28T08:55:55.370Z,10.25
2019-02-28T08:58:27.385Z,10.23
2019-02-28T09:00:59.274Z,10.32
2019-02-28T09:03:31.204Z,10.40
2019-02-28T09:06:03.821Z,10.45
2019-02-28T09:08:36.646Z,10.47
2019-02-28T09:11:08.486Z,10.45
2019-02-28T09:13:42.854Z,10.57
2019-02-28T09:16:16.289Z,10.71
2019-02-28T09:18:48.660Z,10.76
2019-02-28T09:21:20.978Z,10.80
2019-02-28T09:23:54.542Z,10.83
2019-02-28T09:26:28.280Z,10.94
2019-02-28T09:29:00.571Z,10.94
2019-02-28T09:31:32.904Z,10.96
2019-02-28T09:34:06.487Z,11.00
2019-02-28T09:36:38.788Z,11.15
2019-02-28T09:39:11.120Z,11.19
2019-02-28T09:41:43.368Z,11.27
2019-02-28T09:44:31.326Z,11.31
2019-02-28T09:47:11.855Z,11.39
2019-02-28T09:49:48.056Z,11.35
2019-02-28T09:52:20.716Z,11.39
2019-02-28T09:54:56.311Z,11.32
2019-02-28T09:57:30.251Z,11.30
2019-02-28T10:00:03.088Z,11.26
2019-02-28T10:02:37.005Z,11.23
2019-02-28T10:05:11.776Z,11.21
2019-02-28T10:07:44.634Z,11.25
2019-02-28T10:10:21.071Z,11.34
2019-02-28T10:12:57.588Z,11.50
2019-02-28T10:15:33.422Z,11.60
2019-02-28T10:18:07.911Z,11.62
2019-02-28T10:20:40.455Z,11.69
2019-02-28T10:23:28.115Z,11.71
2019-02-28T10:26:00.999Z,11.71
2019-02-28T10:28:43.112Z,11.79
2019-02-28T10:31:15.538Z,11.89
2019-02-28T10:33:52.547Z,11.96
2019-02-28T10:36:25.187Z,12.03
2019-02-28T10:39:02.731Z,12.06
2019-02-28T10:42:05.041Z,12.17
2019-02-28T10:44:53.571Z,12.23
2019-02-28T10:47:52.088Z,12.43
2019-02-28T10:50:49.700Z,12.45
2019-02-28T10:53:46.020Z,12.51
2019-02-28T10:56:39.074Z,12.50
2019-02-28T10:59:24.328Z,12.60
2019-02-28T11:02:05.165Z,12.60
2019-02-28T11:05:00.007Z,12.61
2019-02-28T11:08:12.971Z,12.67
2019-02-28T11:11:10.575Z,12.74
2019-02-28T11:13:51.176Z,12.76
2019-02-28T11:16:36.142Z,12.80
2019-02-28T11:19:18.562Z,12.77
2019-02-28T11:22:11.802Z,12.90
2019-02-28T11:24:53.522Z,12.90
2019-02-28T11:27:38.604Z,13.01
2019-02-28T11:30:14.125Z,13.02
2019-02-28T11:32:56.532Z,13.18
2019-02-28T11:35:59.139Z,13.19
2019-02-28T11:39:06.199Z,13.21
2019-02-28T11:41:49.278Z,13.27
2019-02-28T11:44:47.836Z,13.30
2019-02-28T11:47:34.496Z,13.29
2019-02-28T11:50:14.971Z,13.17
2019-02-28T11:53:03.251Z,13.14
2019-02-28T11:55:38.186Z,13.16
2019-02-28T11:58:51.295Z,13.20
2019-02-28T12:02:00.830Z,13.29
2019-02-28T12:03:49.953Z,13.14
2019-02-28T12:06:22.340Z,13.27
2019-02-28T12:08:55.358Z,13.35
2019-02-28T12:11:27.241Z,13.47
2019-02-28T12:13:59.135Z,13.52
2019-02-28T12:16:35.206Z,13.43
2019-02-28T12:19:04.810Z,13.59
2019-02-28T12:21:37.948Z,13.60
2019-02-28T12:24:11.421Z,13.50
2019-02-28T12:26:43.375Z,13.50
2019-02-28T12:29:15.251Z,13.35
2019-02-28T12:31:47.237Z,13.33
2019-02-28T12:34:19.136Z,13.24
2019-02-28T12:36:50.950Z,13.16
2019-02-28T12:39:23.681Z,13.12
2019-02-28T12:41:56.576Z,13.04
2019-02-28T12:44:29.263Z,12.98
2019-02-28T12:47:03.307Z,12.97
2019-02-28T12:49:34.737Z,12.97
2019-02-28T12:52:06.982Z,13.01
2019-02-28T12:54:40.474Z,13.04
2019-02-28T12:57:12.510Z,12.99
2019-02-28T12:59:47.446Z,12.96
2019-02-28T13:02:19.441Z,13.02
2019-02-28T13:04:51.463Z,13.04
2019-02-28T13:07:23.368Z,13.00
2019-02-28T13:09:55.229Z,13.05
2019-02-28T13:12:27.147Z,13.09
2019-02-28T13:14:59.134Z,13.16
2019-02-28T13:17:31.647Z,13.26
2019-02-28T13:20:07.777Z,13.37
2019-02-28T13:22:39.680Z,13.47
2019-02-28T13:25:12.449Z,13.55
2019-02-28T13:27:45.293Z,13.59
2019-02-28T13:30:23.698Z,13.60
2019-02-28T13:32:55.967Z,13.59
2019-02-28T13:35:30.841Z,13.64
2019-02-28T13:38:02.706Z,13.69
2019-02-28T13:40:34.711Z,13.73
2019-02-28T13:43:06.604Z,13.80
2019-02-28T13:45:38.600Z,13.86
2019-02-28T13:48:10.562Z,13.93
2019-02-28T13:50:42.543Z,13.96
2019-02-28T13:53:17.808Z,13.96
2019-02-28T13:55:52.777Z,14.03
2019-02-28T13:58:23.575Z,14.08
2019-02-28T14:00:56.448Z,14.15
2019-02-28T14:03:29.315Z,14.12
2019-02-28T14:06:01.285Z,14.28
2019-02-28T14:08:33.181Z,14.37
2019-02-28T14:11:05.797Z,14.43
2019-02-28T14:13:38.738Z,14.43
2019-02-28T14:16:10.921Z,14.45
2019-02-28T14:18:45.432Z,14.50
2019-02-28T14:21:16.625Z,14.48
2019-02-28T14:23:48.795Z,14.42
2019-02-28T14:26:20.750Z,14.36
2019-02-28T14:28:52.655Z,14.56
2019-02-28T14:31:24.663Z,14.39
2019-02-28T14:33:56.615Z,14.33
2019-02-28T14:36:28.537Z,14.22
2019-02-28T14:39:00.605Z,14.17
2019-02-28T14:41:33.934Z,14.16
2019-02-28T14:44:05.868Z,14.14
2019-02-28T14:46:38.052Z,14.09
2019-02-28T14:49:12.623Z,14.05
2019-02-28T14:51:44.970Z,13.95
2019-02-28T14:54:16.980Z,13.94
2019-02-28T14:56:49.099Z,13.90
2019-02-28T14:59:23.326Z,13.95
2019-02-28T15:01:56.069Z,13.87
2019-02-28T15:04:31.322Z,13.85
2019-02-28T15:07:04.455Z,13.81
2019-02-28T15:09:39.137Z,13.73
2019-02-28T15:12:14.787Z,13.67
2019-02-28T15:14:46.726Z,13.62
2019-02-28T15:17:19.073Z,13.54
2019-02-28T15:19:51.114Z,13.49
2019-02-28T15:22:23.149Z,13.43
2019-02-28T15:24:55.181Z,13.39
2019-02-28T15:27:27.703Z,13.32
2019-02-28T15:30:02.701Z,13.28
2019-02-28T15:32:33.301Z,13.20
2019-02-28T15:35:06.017Z,13.15
2019-02-28T15:37:37.941Z,13.08
2019-02-28T15:40:13.878Z,13.04
2019-02-28T15:42:46.109Z,12.92
2019-02-28T15:45:19.981Z,12.80
2019-02-28T15:47:59.123Z,12.74
2019-02-28T15:50:31.394Z,12.69
2019-02-28T15:53:03.452Z,12.65
2019-02-28T15:55:36.609Z,12.59
2019-02-28T15:58:09.026Z,12.53
2019-02-28T16:00:41.490Z,12.45
2019-02-28T16:03:16.794Z,12.35
2019-02-28T16:05:49.078Z,12.27
2019-02-28T16:08:21.832Z,12.28
2019-02-28T16:10:53.820Z,12.18
2019-02-28T16:13:26.548Z,12.09
2019-02-28T16:15:58.611Z,11.91
2019-02-28T16:18:30.723Z,11.87
2019-02-28T16:21:03.518Z,11.89
2019-02-28T16:23:37.210Z,11.76
2019-02-28T16:26:09.069Z,11.68
2019-02-28T16:28:42.801Z,11.64
2019-02-28T16:31:14.830Z,11.55
2019-02-28T16:33:47.182Z,11.38
2019-02-28T16:36:19.027Z,11.42
2019-02-28T16:38:51.199Z,11.32
2019-02-28T16:41:23.617Z,11.38
2019-02-28T16:43:57.168Z,11.31
2019-02-28T16:46:30.233Z,11.18
2019-02-28T16:49:02.152Z,10.90
2019-02-28T16:51:35.324Z,10.90
2019-02-28T16:54:07.633Z,10.81
2019-02-28T16:56:39.651Z,10.68
2019-02-28T16:59:11.797Z,10.58
2019-02-28T17:01:44.243Z,10.74
2019-02-28T17:04:18.155Z,10.85
2019-02-28T17:06:50.188Z,10.80
2019-02-28T17:09:31.919Z,10.62
2019-02-28T17:12:23.675Z,10.69
2019-02-28T17:14:57.577Z,10.57
2019-02-28T17:17:48.237Z,10.64
2019-02-28T17:20:20.224Z,10.57
2019-02-28T17:22:52.181Z,10.51
2019-02-28T17:25:24.745Z,10.40
2019-02-28T17:28:04.823Z,10.49
2019-02-28T17:30:56.040Z,10.39
2019-02-28T17:33:28.257Z,10.31
2019-02-28T17:36:00.158Z,9.92
2019-02-28T17:38:37.241Z,10.21
2019-02-28T17:41:07.823Z,10.12
2019-02-28T17:43:42.472Z,10.10
2019-02-28T17:46:14.934Z,10.03
2019-02-28T17:50:18.244Z,9.95
2019-02-28T17:53:22.931Z,9.82
2019-02-28T17:57:16.581Z,9.80
2019-02-28T18:01:04.068Z,9.70
2019-02-28T18:04:33.698Z,9.71
2019-02-28T18:07:46.256Z,9.63
2019-02-28T18:11:23.907Z,9.58
2019-02-28T18:14:31.230Z,9.38
2019-02-28T18:17:54.637Z,9.38
2019-02-28T18:21:17.679Z,9.31
2019-02-28T18:24:59.055Z,9.18
2019-02-28T18:28:08.884Z,9.22
2019-02-28T18:31:22.279Z,9.11
2019-02-28T18:39:55.537Z,8.80
2019-02-28T18:42:34.665Z,8.72
2019-02-28T18:45:11.121Z,8.78
2019-02-28T18:47:44.510Z,8.75
2019-02-28T18:50:17.005Z,8.63
2019-02-28T18:52:49.629Z,8.52
2019-02-28T18:55:21.797Z,8.39
2019-02-28T18:57:53.960Z,8.19
2019-02-28T19:00:25.953Z,8.06
2019-02-28T19:02:58.444Z,8.00
2019-02-28T19:05:30.610Z,8.03
2019-02-28T19:08:05.685Z,7.86
2019-02-28T19:10:37.716Z,7.75
2019-02-28T19:13:09.866Z,7.70
2019-02-28T19:15:41.841Z,7.74
2019-02-28T19:18:13.860Z,7.89
2019-02-28T19:20:45.996Z,7.94
2019-02-28T19:23:18.083Z,8.00
2019-02-28T19:25:50.277Z,7.91
2019-02-28T19:28:22.697Z,7.83
2019-02-28T19:30:55.689Z,7.75
2019-02-28T19:33:27.724Z,7.64
2019-02-28T19:35:59.947Z,7.50
2019-02-28T19:38:32.563Z,7.55
2019-02-28T19:41:04.729Z,6.80
2019-02-28T19:43:36.933Z,7.70
2019-02-28T19:46:09.895Z,7.70
2019-02-28T19:48:43.631Z,7.53
2019-02-28T19:51:15.812Z,7.55
2019-02-28T19:53:48.329Z,7.39
2019-02-28T19:56:21.641Z,7.24
2019-02-28T19:58:54.115Z,7.44
2019-02-28T20:01:26.616Z,7.54
2019-02-28T20:03:59.025Z,7.52
2019-02-28T20:06:31.529Z,7.49
2019-02-28T20:09:05.447Z,7.32
2019-02-28T20:11:37.959Z,7.34
2019-02-28T20:14:10.013Z,7.18
2019-02-28T20:16:42.571Z,7.33
2019-02-28T20:19:14.660Z,7.39
2019-02-28T20:21:47.024Z,7.41
2019-02-28T20:24:19.413Z,7.31
2019-02-28T20:26:51.905Z,7.32
2019-02-28T20:29:24.048Z,7.42
2019-02-28T20:31:56.597Z,7.55
2019-02-28T20:34:29.241Z,7.56
2019-02-28T20:37:01.612Z,7.46
2019-02-28T20:39:33.820Z,7.51
2019-02-28T20:42:05.763Z,7.51
2019-02-28T20:44:37.758Z,7.36
2019-02-28T20:47:09.909Z,7.38
2019-02-28T20:49:42.202Z,7.35
2019-02-28T20:52:14.299Z,7.42
2019-02-28T20:54:46.486Z,7.38
2019-02-28T20:58:28.752Z,7.30
2019-02-28T21:01:00.838Z,7.24
2019-02-28T21:03:32.878Z,7.12
2019-02-28T21:06:05.934Z,7.15
2019-02-28T21:08:37.932Z,7.08
2019-02-28T21:11:09.956Z,7.09
2019-02-28T21:13:42.018Z,7.13
2019-02-28T21:16:13.919Z,7.01
2019-02-28T21:18:45.898Z,6.91
2019-02-28T21:21:17.846Z,6.99
2019-02-28T21:23:49.902Z,6.90
2019-02-28T21:26:21.929Z,7.01
2019-02-28T21:28:53.838Z,7.05
2019-02-28T21:31:25.833Z,7.19
2019-02-28T21:33:57.795Z,7.29
2019-02-28T21:36:29.770Z,7.37
2019-02-28T21:39:01.768Z,7.44
2019-02-28T21:41:35.370Z,7.51
2019-02-28T21:44:07.465Z,7.43
2019-02-28T21:46:39.448Z,7.33
2019-02-28T21:49:11.382Z,7.43
2019-02-28T21:51:43.375Z,7.46
2019-02-28T21:54:15.306Z,7.39
2019-02-28T21:56:47.311Z,7.40
2019-02-28T21:59:19.204Z,7.44
2019-02-28T22:01:51.123Z,7.34
2019-02-28T22:04:22.987Z,7.34
2019-02-28T22:06:54.912Z,7.38
2019-02-28T22:09:26.739Z,7.39
2019-02-28T22:11:58.623Z,7.39
2019-02-28T22:14:30.588Z,7.48
2019-02-28T22:17:02.479Z,7.41
2019-02-28T22:19:34.287Z,7.42
2019-02-28T22:22:06.135Z,7.29
2019-02-28T22:24:38.029Z,7.20
2019-02-28T22:27:09.803Z,7.31
2019-02-28T22:29:41.796Z,7.42
2019-02-28T22:32:24.463Z,7.48
2019-02-28T22:35:21.521Z,7.41
2019-02-28T22:37:53.321Z,7.40
2019-02-28T22:40:25.293Z,7.28
2019-02-28T22:42:57.213Z,7.30
2019-02-28T22:45:29.181Z,7.31
2019-02-28T22:48:01.060Z,7.32
2019-02-28T22:50:33.956Z,7.31
2019-02-28T22:53:06.006Z,7.32
2019-02-28T22:55:37.813Z,7.32
2019-02-28T22:58:12.945Z,7.29
2019-02-28T23:01:03.918Z,7.26
2019-02-28T23:03:38.450Z,7.26
2019-02-28T23:06:10.284Z,7.23
2019-02-28T23:08:42.157Z,7.15
2019-02-28T23:11:14.456Z,7.15
2019-02-28T23:13:46.268Z,7.22
2019-02-28T23:16:18.113Z,7.20
2019-02-28T23:18:49.956Z,7.27
2019-02-28T23:21:21.795Z,7.26
2019-02-28T23:23:53.635Z,7.22
2019-02-28T23:26:28.815Z,7.19
2019-02-28T23:29:16.380Z,7.12
2019-02-28T23:32:47.110Z,7.15
2019-02-28T23:35:33.228Z,7.06
2019-02-28T23:38:06.087Z,6.92
2019-02-28T23:40:38.054Z,6.77
2019-02-28T23:43:09.891Z,6.77
2019-02-28T23:45:41.769Z,6.79
2019-02-28T23:48:13.833Z,6.78
2019-02-28T23:50:45.751Z,6.74
2019-02-28T23:53:17.567Z,6.71
2019-02-28T23:55:49.432Z,6.71
2019-02-28T23:58:21.344Z,6.77
